Time;durP1;ratioP1;P1;durP2;ratioP2;P2;SDS_P1;SDS_P2;PMS_P1;PMS_P2;Temp;Humidity;BMP_temperature;BMP_pressure;BME280_temperature;BME280_humidity;BME280_pressure;Samples;Min_cycle;Max_cycle;Signal;HPM_P1;HPM_P2
2022/06/19 00:01:49;;;;;;;9.17;8.27;;;19.60;99.90;;;;;;5051937;28;20610;-56
2022/06/19 00:04:17;;;;;;;10.20;7.20;;;19.50;99.90;;;;;;5051990;28;20511;-59
2022/06/19 00:06:45;;;;;;;9.37;8.27;;;19.50;99.90;;;;;;5051364;28;21054;-57
2022/06/19 00:09:12;;;;;;;11.47;7.50;;;19.40;99.90;;;;;;5051471;28;21037;-56
2022/06/19 00:11:39;;;;;;;10.40;7.27;;;19.40;99.90;;;;;;5051815;28;20454;-56
2022/06/19 00:14:08;;;;;;;12.17;8.50;;;19.30;99.90;;;;;;5051672;28;20446;-56
2022/06/19 00:16:35;;;;;;;8.80;7.70;;;19.20;99.90;;;;;;5051628;28;20473;-56
2022/06/19 00:19:03;;;;;;;10.67;7.27;;;19.30;99.90;;;;;;5051677;28;20511;-57
2022/06/19 00:21:32;;;;;;;9.70;7.80;;;19.40;99.90;;;;;;5051464;28;20503;-56
2022/06/19 00:23:59;;;;;;;8.70;7.80;;;19.40;99.90;;;;;;5051430;28;20865;-56
2022/06/19 00:26:26;;;;;;;11.50;8.60;;;19.50;99.90;;;;;;5050912;28;20954;-56
2022/06/19 00:28:53;;;;;;;8.70;7.80;;;19.30;99.90;;;;;;5051461;28;20534;-57
2022/06/19 00:31:21;;;;;;;9.27;7.90;;;19.20;99.90;;;;;;5051335;28;20524;-57
2022/06/19 00:33:48;;;;;;;9.27;7.80;;;19.30;99.90;;;;;;5051304;28;20477;-57
2022/06/19 00:36:15;;;;;;;13.30;8.50;;;19.40;99.90;;;;;;5051073;28;20551;-56
2022/06/19 00:38:43;;;;;;;8.80;7.60;;;19.40;99.90;;;;;;5051127;28;20802;-56
2022/06/19 00:41:10;;;;;;;8.60;7.70;;;19.40;99.90;;;;;;5050886;28;20864;-56
2022/06/19 00:43:59;;;;;;;8.60;7.70;;;19.40;99.90;;;;;;5051116;28;20504;-56
2022/06/19 00:46:42;;;;;;;9.40;7.70;;;19.40;99.90;;;;;;5050309;28;20452;-56
2022/06/19 00:49:13;;;;;;;9.40;7.87;;;19.40;99.90;;;;;;5050741;28;20511;-57
2022/06/19 00:51:40;;;;;;;8.37;7.47;;;19.40;99.90;;;;;;5050490;28;21012;-56
2022/06/19 00:54:11;;;;;;;7.60;6.80;;;19.40;99.90;;;;;;5050673;28;20494;-57
2022/06/19 00:56:38;;;;;;;9.60;7.70;;;19.40;99.90;;;;;;5050620;28;21157;-57
2022/06/19 00:59:07;;;;;;;12.50;8.30;;;19.40;99.90;;;;;;5050530;28;20922;-58
2022/06/19 01:01:34;;;;;;;11.00;8.50;;;19.30;99.90;;;;;;5050804;28;20557;-57
2022/06/19 01:04:07;;;;;;;9.03;8.13;;;19.10;99.90;;;;;;5050729;28;20527;-56
2022/06/19 01:06:34;;;;;;;10.50;7.87;;;19.20;99.90;;;;;;5050508;28;20474;-56
2022/06/19 01:09:01;;;;;;;9.53;8.53;;;19.20;99.90;;;;;;5050613;28;20481;-57
2022/06/19 01:11:34;;;;;;;9.13;7.90;;;19.30;99.90;;;;;;5050222;28;20496;-56
2022/06/19 01:14:03;;;;;;;9.67;8.67;;;19.20;99.90;;;;;;5050329;28;20446;-56
2022/06/19 01:16:30;;;;;;;9.33;8.43;;;19.20;99.90;;;;;;5050282;28;21017;-56
2022/06/19 01:19:00;;;;;;;11.43;8.97;;;19.30;99.90;;;;;;5050694;28;20500;-57
2022/06/19 01:21:33;;;;;;;9.97;8.97;;;19.30;99.90;;;;;;5050424;28;20489;-57
2022/06/19 01:24:12;;;;;;;10.93;8.60;;;19.20;99.90;;;;;;5050123;28;20458;-57
2022/06/19 01:26:44;;;;;;;11.80;9.60;;;19.20;99.90;;;;;;5050356;28;20566;-57
2022/06/19 01:29:12;;;;;;;10.63;9.40;;;19.30;99.90;;;;;;5050249;28;20454;-55
2022/06/19 01:31:44;;;;;;;12.63;9.43;;;19.30;99.90;;;;;;5050223;28;20531;-56
2022/06/19 01:34:28;;;;;;;10.57;9.47;;;19.20;99.90;;;;;;5050078;28;20549;-56
2022/06/19 01:36:59;;;;;;;10.00;8.83;;;19.20;99.90;;;;;;5049989;28;20516;-57
2022/06/19 01:39:29;;;;;;;10.77;8.50;;;19.20;99.90;;;;;;5049943;28;20808;-56
2022/06/19 01:41:58;;;;;;;13.17;9.60;;;19.30;99.90;;;;;;5050144;28;20463;-56
2022/06/19 01:44:25;;;;;;;9.50;8.50;;;19.30;99.90;;;;;;5050093;28;20821;-56
2022/06/19 01:46:53;;;;;;;9.27;8.20;;;19.20;99.90;;;;;;5050015;28;20481;-56
2022/06/19 01:49:20;;;;;;;10.70;8.97;;;19.20;99.90;;;;;;5049606;28;20818;-56
2022/06/19 01:51:47;;;;;;;9.83;7.87;;;19.30;99.90;;;;;;5049885;28;20442;-57
2022/06/19 01:54:21;;;;;;;9.40;8.40;;;19.20;99.90;;;;;;5049410;28;20485;-57
2022/06/19 01:56:49;;;;;;;12.07;8.20;;;19.20;99.90;;;;;;5048943;28;20478;-56
2022/06/19 01:59:20;;;;;;;9.90;8.90;;;19.10;99.90;;;;;;5049752;28;20446;-56
2022/06/19 02:01:48;;;;;;;9.60;8.67;;;19.10;99.90;;;;;;5049369;28;20506;-55
2022/06/19 02:04:15;;;;;;;12.10;9.57;;;19.00;99.90;;;;;;5049680;28;20527;-56
2022/06/19 02:06:45;;;;;;;11.90;9.07;;;18.90;99.90;;;;;;5049534;28;20540;-57
2022/06/19 02:09:16;;;;;;;11.03;8.77;;;18.90;99.90;;;;;;5049717;28;20502;-56
2022/06/19 02:11:43;;;;;;;11.00;9.50;;;18.90;99.90;;;;;;5049367;28;20497;-56
2022/06/19 02:14:11;;;;;;;10.40;8.43;;;18.90;99.90;;;;;;5049523;28;20465;-55
2022/06/19 02:16:43;;;;;;;9.83;8.83;;;18.80;99.90;;;;;;5049399;28;20473;-58
2022/06/19 02:19:10;;;;;;;11.27;8.50;;;18.70;99.90;;;;;;5049456;28;20454;-57
2022/06/19 02:21:39;;;;;;;10.57;8.60;;;18.90;99.90;;;;;;5049458;28;20449;-55
2022/06/19 02:24:08;;;;;;;8.20;7.30;;;18.90;99.90;;;;;;5049659;28;20796;-56
2022/06/19 02:26:37;;;;;;;8.93;8.03;;;18.80;99.90;;;;;;5049216;28;20478;-57
2022/06/19 02:29:06;;;;;;;10.50;8.87;;;18.80;99.90;;;;;;5049364;28;20457;-56
2022/06/19 02:31:35;;;;;;;10.50;8.53;;;18.80;99.90;;;;;;5049355;28;20489;-55
2022/06/19 02:34:08;;;;;;;13.60;8.80;;;18.80;99.90;;;;;;5049398;28;20458;-56
2022/06/19 02:36:41;;;;;;;10.70;9.60;;;18.70;99.90;;;;;;5049349;28;20473;-56
2022/06/19 02:39:32;;;;;;;10.50;8.83;;;18.30;99.90;;;;;;5049021;28;20442;-57
2022/06/19 02:42:06;;;;;;;9.57;8.67;;;18.00;99.90;;;;;;5049701;28;20446;-56
2022/06/19 02:44:36;;;;;;;10.63;8.97;;;17.80;99.90;;;;;;5049537;28;20458;-58
2022/06/19 02:47:04;;;;;;;10.57;9.57;;;17.70;99.90;;;;;;5049226;28;20466;-57
2022/06/19 02:49:33;;;;;;;11.27;7.87;;;17.70;99.90;;;;;;5049326;28;20527;-57
2022/06/19 02:52:00;;;;;;;9.40;8.10;;;17.80;99.90;;;;;;5048806;28;20496;-57
2022/06/19 02:54:28;;;;;;;13.20;8.23;;;17.70;99.90;;;;;;5048917;28;20523;-56
2022/06/19 02:56:55;;;;;;;9.20;8.30;;;17.60;99.90;;;;;;5049386;28;20482;-57
2022/06/19 02:59:22;;;;;;;12.20;7.77;;;17.60;99.90;;;;;;5049246;28;20457;-56
2022/06/19 03:01:50;;;;;;;8.50;7.20;;;17.60;99.90;;;;;;5048787;28;20503;-56
2022/06/19 03:04:23;;;;;;;9.63;7.87;;;17.60;99.90;;;;;;5049130;28;20450;-56
2022/06/19 03:06:52;;;;;;;9.63;7.97;;;17.50;99.90;;;;;;5049008;28;20982;-56
2022/06/19 03:09:19;;;;;;;13.63;7.90;;;17.30;99.90;;;;;;5051239;28;20458;-57
2022/06/19 03:11:46;;;;;;;7.87;6.90;;;17.30;99.90;;;;;;5052846;28;20493;-57
2022/06/19 03:14:13;;;;;;;8.00;7.20;;;17.50;99.90;;;;;;5052839;28;20453;-57
2022/06/19 03:16:40;;;;;;;8.70;7.57;;;17.70;99.90;;;;;;5052307;28;20477;-56
2022/06/19 03:19:07;;;;;;;11.27;7.60;;;17.90;99.90;;;;;;5052669;28;20462;-56
2022/06/19 03:21:34;;;;;;;10.03;8.60;;;18.20;99.90;;;;;;5052720;28;20458;-58
2022/06/19 03:24:03;;;;;;;8.60;7.00;;;18.30;99.90;;;;;;5052583;28;20450;-56
2022/06/19 03:26:30;;;;;;;8.10;7.30;;;18.10;99.90;;;;;;5052695;28;20575;-55
2022/06/19 03:28:58;;;;;;;9.67;7.67;;;18.00;99.90;;;;;;5052463;28;20453;-57
2022/06/19 03:31:28;;;;;;;9.37;8.03;;;18.00;99.90;;;;;;5052512;28;20482;-55
2022/06/19 03:33:55;;;;;;;9.80;7.37;;;18.00;99.90;;;;;;5052480;28;20449;-56
2022/06/19 03:36:22;;;;;;;8.33;7.37;;;18.10;99.90;;;;;;5052203;28;20483;-57
2022/06/19 03:38:49;;;;;;;9.77;8.17;;;18.20;99.90;;;;;;5051907;28;20499;-56
2022/06/19 03:41:18;;;;;;;7.90;7.10;;;18.40;99.90;;;;;;5052347;28;20811;-57
2022/06/19 03:43:45;;;;;;;13.00;7.20;;;18.50;99.90;;;;;;5051962;28;20454;-57
2022/06/19 03:46:15;;;;;;;8.30;7.50;;;18.50;99.90;;;;;;5052007;28;20454;-54
2022/06/19 03:48:42;;;;;;;8.80;7.37;;;18.60;99.90;;;;;;5051645;28;20456;-56
2022/06/19 03:51:10;;;;;;;8.67;7.77;;;18.60;99.90;;;;;;5051972;28;20482;-55
2022/06/19 03:53:38;;;;;;;15.90;8.30;;;18.70;99.90;;;;;;5051507;28;20545;-57
2022/06/19 03:56:07;;;;;;;9.83;7.63;;;18.70;99.90;;;;;;5052119;28;20465;-56
2022/06/19 03:58:46;;;;;;;10.47;8.20;;;18.70;99.90;;;;;;5051730;28;20802;-56
2022/06/19 04:01:15;;;;;;;8.63;7.80;;;18.80;99.90;;;;;;5052004;28;20544;-56
2022/06/19 04:03:42;;;;;;;13.30;8.57;;;18.80;99.90;;;;;;5051955;28;21029;-56
2022/06/19 04:06:11;;;;;;;10.70;9.07;;;18.90;99.90;;;;;;5051753;28;20516;-57
2022/06/19 04:08:38;;;;;;;10.87;9.73;;;18.90;99.90;;;;;;5051858;28;20964;-56
2022/06/19 04:11:06;;;;;;;12.40;10.30;;;19.10;99.90;;;;;;5051545;28;20551;-56
2022/06/19 04:13:35;;;;;;;11.27;9.33;;;19.10;99.90;;;;;;5051627;28;20535;-56
2022/06/19 04:16:03;;;;;;;12.63;9.70;;;19.10;99.90;;;;;;5051421;28;20953;-56
2022/06/19 04:18:31;;;;;;;12.27;10.97;;;19.20;99.90;;;;;;5051449;28;20974;-57
2022/06/19 04:20:58;;;;;;;11.30;10.20;;;19.20;99.90;;;;;;5050986;28;20989;-56
2022/06/19 04:23:25;;;;;;;13.30;10.90;;;19.20;99.90;;;;;;5051035;28;20511;-56
2022/06/19 04:25:53;;;;;;;10.80;9.40;;;19.20;99.90;;;;;;5051437;28;20454;-57
2022/06/19 04:28:24;;;;;;;10.47;9.37;;;19.20;99.90;;;;;;5050988;28;20539;-56
2022/06/19 04:30:53;;;;;;;11.50;10.30;;;19.30;99.90;;;;;;5051344;28;20485;-56
2022/06/19 04:33:21;;;;;;;14.80;10.70;;;19.30;99.90;;;;;;5051374;28;20450;-56
2022/06/19 04:35:49;;;;;;;11.20;10.10;;;19.40;99.90;;;;;;5050920;28;20942;-57
2022/06/19 04:38:17;;;;;;;11.13;9.30;;;19.40;99.90;;;;;;5050825;28;20974;-56
2022/06/19 04:40:45;;;;;;;12.03;10.30;;;19.50;99.90;;;;;;5051192;28;20449;-56
2022/06/19 04:43:13;;;;;;;12.30;10.07;;;19.60;99.90;;;;;;5050840;28;20527;-57
2022/06/19 04:45:40;;;;;;;11.43;10.33;;;19.60;99.90;;;;;;5050759;28;20986;-55
2022/06/19 04:48:11;;;;;;;9.90;8.90;;;19.60;99.90;;;;;;5050880;28;20485;-55
2022/06/19 04:50:38;;;;;;;9.87;8.80;;;19.70;99.90;;;;;;5050916;28;20462;-57
2022/06/19 04:53:05;;;;;;;9.73;8.80;;;19.70;99.90;;;;;;5050497;28;20490;-56
2022/06/19 04:55:32;;;;;;;10.10;8.80;;;19.80;99.90;;;;;;5050883;28;20905;-57
2022/06/19 04:58:02;;;;;;;10.53;8.63;;;19.80;99.90;;;;;;5050817;28;20478;-57
2022/06/19 05:00:29;;;;;;;10.17;8.30;;;19.90;99.90;;;;;;5050753;28;20851;-56
2022/06/19 05:02:56;;;;;;;9.07;7.73;;;20.00;99.90;;;;;;5050520;28;20561;-55
2022/06/19 05:05:26;;;;;;;12.00;9.20;;;20.00;99.90;;;;;;5050657;28;20552;-56
2022/06/19 05:07:52;;;;;;;9.43;8.53;;;20.00;99.90;;;;;;5050757;28;20516;-55
2022/06/19 05:10:20;;;;;;;10.43;9.30;;;20.20;99.90;;;;;;5050624;28;20858;-56
2022/06/19 05:12:47;;;;;;;14.37;9.30;;;20.30;99.90;;;;;;5050678;28;20477;-57
2022/06/19 05:15:14;;;;;;;11.43;9.47;;;20.30;99.90;;;;;;5049944;28;20450;-56
2022/06/19 05:17:41;;;;;;;11.23;9.13;;;20.40;99.90;;;;;;5050230;28;20473;-55
2022/06/19 05:20:09;;;;;;;10.97;9.60;;;20.30;99.90;;;;;;5050205;28;20926;-56
2022/06/19 05:22:37;;;;;;;10.47;9.30;;;20.50;99.90;;;;;;5050178;28;20456;-56
2022/06/19 05:25:08;;;;;;;10.83;9.73;;;20.60;99.90;;;;;;5050212;28;20753;-57
2022/06/19 05:27:38;;;;;;;10.33;9.33;;;20.50;99.90;;;;;;5050298;28;20470;-55
2022/06/19 05:30:07;;;;;;;11.43;10.20;;;20.50;99.90;;;;;;5049974;28;20555;-56
2022/06/19 05:32:34;;;;;;;10.67;9.57;;;20.50;99.90;;;;;;5049327;28;20578;-57
2022/06/19 05:35:01;;;;;;;8.53;6.80;;;20.60;99.90;;;;;;5050420;28;20454;-56
2022/06/19 05:37:28;;;;;;;12.27;7.80;;;20.60;99.90;;;;;;5050010;28;20579;-55
2022/06/19 05:39:56;;;;;;;9.60;8.70;;;20.70;99.90;;;;;;5050169;28;20966;-57
2022/06/19 05:42:23;;;;;;;10.37;9.20;;;20.80;99.90;;;;;;5049738;28;20449;-57
2022/06/19 05:44:50;;;;;;;11.17;8.83;;;20.70;99.90;;;;;;5049563;28;20919;-56
2022/06/19 05:47:17;;;;;;;9.30;8.30;;;20.90;99.90;;;;;;5049853;28;20543;-57
2022/06/19 05:49:44;;;;;;;7.90;7.10;;;21.10;99.90;;;;;;5049437;28;21008;-57
2022/06/19 05:52:17;;;;;;;9.13;6.80;;;21.40;99.90;;;;;;5049555;28;20547;-57
2022/06/19 05:54:44;;;;;;;10.33;7.30;;;21.50;99.90;;;;;;5050024;28;20513;-56
2022/06/19 05:57:13;;;;;;;8.60;6.47;;;21.70;99.90;;;;;;5049368;28;21034;-57
2022/06/19 05:59:40;;;;;;;9.33;7.30;;;21.80;99.90;;;;;;5049820;28;20449;-57
2022/06/19 06:02:09;;;;;;;11.30;7.90;;;21.80;99.90;;;;;;5049682;28;20550;-57
2022/06/19 06:04:36;;;;;;;9.60;7.80;;;21.80;99.90;;;;;;5049673;28;20981;-59
2022/06/19 06:07:03;;;;;;;8.83;6.50;;;21.70;99.90;;;;;;5049356;28;21100;-56
2022/06/19 06:09:30;;;;;;;9.00;7.70;;;21.80;99.90;;;;;;5049173;28;20450;-57
2022/06/19 06:11:57;;;;;;;8.37;6.40;;;21.70;99.90;;;;;;5049597;28;20497;-57
2022/06/19 06:14:25;;;;;;;6.63;5.90;;;21.70;99.90;;;;;;5049563;28;20523;-57
2022/06/19 06:16:52;;;;;;;8.30;7.10;;;21.90;99.90;;;;;;5049355;28;20474;-57
2022/06/19 06:19:19;;;;;;;6.97;6.20;;;22.00;99.90;;;;;;5049545;28;20814;-57
2022/06/19 06:21:46;;;;;;;8.90;6.50;;;22.40;99.90;;;;;;5048988;28;20919;-57
2022/06/19 06:24:15;;;;;;;7.47;5.77;;;22.70;99.90;;;;;;5049398;28;20449;-57
2022/06/19 06:26:43;;;;;;;7.07;6.20;;;22.90;99.90;;;;;;5048904;28;21069;-57
2022/06/19 06:29:10;;;;;;;9.00;6.50;;;23.10;99.90;;;;;;5049286;28;20923;-57
2022/06/19 06:31:38;;;;;;;9.90;6.90;;;23.30;99.90;;;;;;5049550;28;20490;-56
2022/06/19 06:34:05;;;;;;;7.10;6.27;;;23.20;99.90;;;;;;5049531;28;20454;-56
2022/06/19 06:36:32;;;;;;;6.97;5.40;;;23.20;99.90;;;;;;5049503;28;20473;-57
2022/06/19 06:38:59;;;;;;;8.10;6.27;;;23.30;99.90;;;;;;5049266;28;20527;-56
2022/06/19 06:41:27;;;;;;;7.13;5.40;;;23.50;99.90;;;;;;5049318;28;20926;-56
2022/06/19 06:43:54;;;;;;;8.77;5.20;;;23.60;99.90;;;;;;5051039;28;20502;-57
2022/06/19 06:46:23;;;;;;;6.83;5.60;;;23.80;99.90;;;;;;5053299;28;20880;-56
2022/06/19 06:48:54;;;;;;;9.70;5.83;;;23.90;99.90;;;;;;5053252;28;20918;-57
2022/06/19 06:51:25;;;;;;;6.40;5.10;;;24.10;99.90;;;;;;5053072;28;20481;-57
2022/06/19 06:53:52;;;;;;;7.87;4.60;;;24.40;99.90;;;;;;5052668;28;20494;-56
2022/06/19 06:56:21;;;;;;;6.97;4.97;;;24.40;99.90;;;;;;5052968;28;21028;-58
2022/06/19 06:58:48;;;;;;;8.53;4.80;;;24.50;99.90;;;;;;5052698;28;21030;-57
2022/06/19 07:01:17;;;;;;;7.20;4.63;;;24.60;99.90;;;;;;5053161;28;20454;-57
2022/06/19 07:03:45;;;;;;;7.20;4.43;;;24.80;99.90;;;;;;5053074;28;20453;-56
2022/06/19 07:06:13;;;;;;;6.87;5.03;;;25.00;99.90;;;;;;5052831;28;20470;-55
2022/06/19 07:08:41;;;;;;;5.77;4.73;;;25.00;99.90;;;;;;5052812;28;20480;-57
2022/06/19 07:11:14;;;;;;;7.53;5.67;;;25.00;99.90;;;;;;5052747;28;20457;-56
2022/06/19 07:13:43;;;;;;;6.43;4.27;;;25.10;99.90;;;;;;5052866;28;20519;-57
2022/06/19 07:16:10;;;;;;;7.07;4.50;;;25.20;99.90;;;;;;5052840;28;20506;-57
2022/06/19 07:18:37;;;;;;;5.90;4.80;;;25.20;99.90;;;;;;5052474;28;20453;-56
2022/06/19 07:21:04;;;;;;;9.33;4.50;;;25.00;99.90;;;;;;5052513;28;20454;-56
2022/06/19 07:23:33;;;;;;;7.37;5.20;;;25.00;99.90;;;;;;5052497;28;20446;-57
2022/06/19 07:26:00;;;;;;;17.40;5.70;;;25.00;99.90;;;;;;5052717;28;20563;-62
2022/06/19 07:28:27;;;;;;;7.53;3.40;;;25.30;99.90;;;;;;5052749;28;20519;-60
2022/06/19 07:30:54;;;;;;;5.40;2.97;;;25.40;99.90;;;;;;5052555;28;20485;-61
2022/06/19 07:33:21;;;;;;;5.90;3.17;;;25.30;99.90;;;;;;5052517;28;20489;-60
2022/06/19 07:35:49;;;;;;;5.50;3.23;;;25.50;99.00;;;;;;5052394;28;20507;-60
2022/06/19 07:38:17;;;;;;;5.80;2.63;;;25.60;99.90;;;;;;5052495;28;20446;-63
2022/06/19 07:40:45;;;;;;;4.17;2.73;;;25.60;97.00;;;;;;5052746;28;20873;-64
2022/06/19 07:43:12;;;;;;;6.27;3.40;;;25.70;96.90;;;;;;5052583;28;20446;-62
2022/06/19 07:45:40;;;;;;;5.53;2.87;;;25.80;96.80;;;;;;5052241;28;20536;-61
2022/06/19 07:50:54;;;;;;;6.77;2.70;;;25.50;95.30;;;;;;5052297;28;20937;-64
2022/06/19 07:53:21;;;;;;;7.87;3.00;;;25.60;95.10;;;;;;5051671;28;20502;-63
2022/06/19 07:55:49;;;;;;;6.07;3.00;;;25.80;95.80;;;;;;5051464;28;20477;-62
2022/06/19 07:58:16;;;;;;;5.17;2.40;;;25.80;94.60;;;;;;5052052;28;20499;-62
2022/06/19 08:00:43;;;;;;;5.20;2.60;;;25.90;93.80;;;;;;5052072;28;20442;-62
2022/06/19 08:03:10;;;;;;;6.17;2.57;;;26.00;93.30;;;;;;5052503;28;20446;-64
2022/06/19 08:05:40;;;;;;;4.70;2.23;;;26.20;93.80;;;;;;5051679;28;20998;-63
2022/06/19 08:08:14;;;;;;;6.43;2.27;;;26.40;93.80;;;;;;5052090;28;20909;-62
2022/06/19 08:10:44;;;;;;;8.57;3.07;;;26.70;91.80;;;;;;5052132;28;20448;-62
2022/06/19 08:13:13;;;;;;;4.90;2.23;;;26.80;91.00;;;;;;5051822;28;21027;-62
2022/06/19 08:15:40;;;;;;;6.23;2.50;;;26.90;91.20;;;;;;5051908;28;21011;-62
2022/06/19 08:18:09;;;;;;;5.90;1.97;;;27.00;87.40;;;;;;5051734;28;20531;-63
2022/06/19 08:20:36;;;;;;;4.30;2.10;;;26.90;83.70;;;;;;5051837;28;20481;-62
2022/06/19 08:23:05;;;;;;;5.40;1.97;;;27.00;81.00;;;;;;5051725;28;20545;-62
2022/06/19 08:25:32;;;;;;;3.87;1.83;;;27.10;80.70;;;;;;5051517;28;20948;-64
2022/06/19 08:28:00;;;;;;;3.80;1.97;;;27.20;83.10;;;;;;5051396;28;20474;-62
2022/06/19 08:30:32;;;;;;;4.17;2.10;;;27.30;83.20;;;;;;5051587;28;20456;-64
2022/06/19 08:32:59;;;;;;;6.10;2.10;;;27.50;83.40;;;;;;5051447;28;20896;-63
2022/06/19 08:35:28;;;;;;;4.90;1.90;;;27.40;81.80;;;;;;5051555;28;20499;-63
2022/06/19 08:38:01;;;;;;;4.17;2.00;;;27.40;80.90;;;;;;5051457;28;20477;-61
2022/06/19 08:40:39;;;;;;;4.00;1.90;;;27.60;82.90;;;;;;5051501;28;20806;-62
2022/06/19 08:43:17;;;;;;;5.20;1.93;;;27.70;84.80;;;;;;5051345;28;20457;-64
2022/06/19 08:45:53;;;;;;;3.73;2.00;;;27.80;79.70;;;;;;5051443;28;20458;-63
2022/06/19 08:48:47;;;;;;;4.10;1.87;;;28.00;80.50;;;;;;5051033;28;20547;-60
2022/06/19 08:51:25;;;;;;;4.70;1.50;;;28.20;82.20;;;;;;5051237;28;20857;-62
2022/06/19 08:54:07;;;;;;;4.03;2.17;;;28.20;76.60;;;;;;5050430;28;20498;-63
2022/06/19 08:56:41;;;;;;;3.60;1.43;;;28.30;76.00;;;;;;5050963;28;20481;-62
2022/06/19 08:59:15;;;;;;;5.17;2.17;;;28.30;75.10;;;;;;5050755;28;20491;-63
2022/06/19 09:01:54;;;;;;;4.00;2.20;;;28.30;73.00;;;;;;5050942;28;20515;-63
2022/06/19 09:07:23;;;;;;;4.70;1.77;;;28.30;71.60;;;;;;5016786;28;20446;-61
2022/06/19 09:10:14;;;;;;;3.90;1.63;;;28.30;71.80;;;;;;5050964;28;20445;-62
2022/06/19 09:12:59;;;;;;;3.40;1.43;;;28.40;69.60;;;;;;5050732;28;20987;-64
2022/06/19 09:15:34;;;;;;;6.50;2.00;;;28.30;68.10;;;;;;5050615;28;20453;-63
2022/06/19 09:18:05;;;;;;;6.83;1.90;;;28.20;71.10;;;;;;5050305;28;20852;-63
2022/06/19 09:20:39;;;;;;;3.67;1.67;;;28.20;71.60;;;;;;5050555;28;20450;-63
2022/06/19 09:23:36;;;;;;;4.60;2.03;;;28.20;66.30;;;;;;5050199;28;20458;-65
2022/06/19 09:26:08;;;;;;;4.50;1.93;;;28.20;67.10;;;;;;5050420;28;20465;-64
2022/06/19 09:28:41;;;;;;;4.30;1.90;;;28.20;66.50;;;;;;5050465;28;20454;-62
2022/06/19 09:31:14;;;;;;;5.23;1.90;;;28.10;67.50;;;;;;5050459;28;20480;-64
2022/06/19 09:33:50;;;;;;;4.33;2.00;;;28.30;68.70;;;;;;5049791;28;20497;-62
2022/06/19 09:36:24;;;;;;;4.57;1.60;;;28.40;65.60;;;;;;5049954;28;20990;-61
2022/06/19 09:38:59;;;;;;;3.40;1.40;;;28.20;63.40;;;;;;5050129;28;20453;-60
2022/06/19 09:41:31;;;;;;;4.40;1.37;;;28.20;63.00;;;;;;5050307;28;20511;-63
2022/06/19 09:44:07;;;;;;;5.30;1.60;;;28.30;63.20;;;;;;5050173;28;20926;-62
2022/06/19 09:46:42;;;;;;;4.30;1.70;;;28.50;67.00;;;;;;5049858;28;20469;-63
2022/06/19 09:49:17;;;;;;;4.17;1.73;;;28.80;68.70;;;;;;5050167;28;20454;-62
2022/06/19 09:51:50;;;;;;;4.80;1.53;;;28.90;65.00;;;;;;5050150;28;20511;-64
2022/06/19 09:54:24;;;;;;;3.90;1.93;;;28.50;64.80;;;;;;5049365;28;20501;-65
2022/06/19 09:56:57;;;;;;;3.90;1.43;;;28.40;67.80;;;;;;5049593;28;20487;-63
2022/06/19 09:59:29;;;;;;;4.33;1.60;;;28.70;65.90;;;;;;5049991;28;20480;-66
2022/06/19 10:02:00;;;;;;;3.83;1.47;;;28.50;60.30;;;;;;5049994;28;20507;-65
2022/06/19 10:04:38;;;;;;;4.00;1.60;;;28.30;60.30;;;;;;5049842;28;20930;-65
2022/06/19 10:07:11;;;;;;;4.00;1.40;;;28.10;59.90;;;;;;5049877;28;20470;-63
2022/06/19 10:09:46;;;;;;;4.10;1.80;;;28.00;64.50;;;;;;5049848;28;20445;-65
2022/06/19 10:12:19;;;;;;;3.73;1.77;;;28.30;65.20;;;;;;5049695;28;20504;-64
2022/06/19 10:14:48;;;;;;;4.07;1.50;;;28.60;63.00;;;;;;5049343;28;20511;-62
2022/06/19 10:17:21;;;;;;;3.20;1.13;;;28.70;59.30;;;;;;5049768;28;20541;-62
2022/06/19 10:19:53;;;;;;;4.73;1.30;;;28.50;60.50;;;;;;5048648;28;20472;-67
2022/06/19 10:22:38;;;;;;;3.50;1.53;;;28.60;63.40;;;;;;5049453;28;20445;-72
2022/06/19 10:25:24;;;;;;;3.33;1.37;;;29.00;64.60;;;;;;5049717;28;20505;-65
2022/06/19 10:28:01;;;;;;;6.23;1.30;;;29.10;60.70;;;;;;5049510;28;21027;-62
2022/06/19 10:30:32;;;;;;;6.30;1.73;;;29.40;61.60;;;;;;5049451;28;20993;-67
2022/06/19 10:33:15;;;;;;;4.80;2.90;;;29.60;60.20;;;;;;5049477;28;20902;-62
2022/06/19 10:35:49;;;;;;;4.30;1.90;;;29.80;60.40;;;;;;5049742;28;20507;-61
2022/06/19 10:38:34;;;;;;;3.80;1.70;;;29.80;58.20;;;;;;5049501;28;20485;-62
2022/06/19 10:41:05;;;;;;;3.90;1.97;;;29.90;58.70;;;;;;5049307;28;20803;-62
2022/06/19 10:43:49;;;;;;;3.70;1.70;;;30.10;58.80;;;;;;5049462;28;20936;-62
2022/06/19 10:46:18;;;;;;;3.50;1.43;;;30.30;59.00;;;;;;5049514;28;20531;-61
2022/06/19 10:48:58;;;;;;;4.80;1.70;;;30.00;55.70;;;;;;5049722;28;20808;-62
2022/06/19 10:51:44;;;;;;;4.90;1.40;;;29.50;56.70;;;;;;5049197;28;20503;-62
2022/06/19 10:54:32;;;;;;;3.50;1.30;;;29.20;57.20;;;;;;5049148;28;20501;-63
2022/06/19 10:57:08;;;;;;;4.57;1.70;;;28.90;59.50;;;;;;5049499;28;20836;-62
2022/06/19 10:59:36;;;;;;;3.87;1.47;;;29.00;60.00;;;;;;5049158;28;20446;-62
2022/06/19 11:05:02;;;;;;;5.20;1.63;;;29.50;58.50;;;;;;5049416;28;20789;-61
2022/06/19 11:07:32;;;;;;;3.60;1.50;;;29.50;56.10;;;;;;5047174;28;21071;-62
2022/06/19 11:10:05;;;;;;;4.27;1.40;;;29.90;58.00;;;;;;5057013;28;21368;-63
2022/06/19 11:12:37;;;;;;;4.30;1.53;;;30.10;58.00;;;;;;5048274;28;20450;-64
2022/06/19 11:15:07;;;;;;;3.63;1.37;;;30.20;56.00;;;;;;5045543;28;20816;-62
2022/06/19 11:17:36;;;;;;;4.43;1.90;;;30.50;56.00;;;;;;5059059;28;20498;-62
2022/06/19 11:20:24;;;;;;;4.00;1.60;;;30.80;55.20;;;;;;5068624;28;20452;-63
2022/06/19 11:23:00;;;;;;;4.67;1.70;;;30.80;56.10;;;;;;5068765;28;20495;-64
2022/06/19 11:25:34;;;;;;;4.00;1.60;;;30.40;53.50;;;;;;5069039;28;20526;-63
2022/06/19 11:28:05;;;;;;;4.90;1.40;;;30.10;56.00;;;;;;5059566;28;20473;-64
2022/06/19 11:30:35;;;;;;;8.00;1.33;;;30.10;57.80;;;;;;5047341;28;20445;-61
2022/06/19 11:33:06;;;;;;;4.33;1.70;;;30.30;56.10;;;;;;5050720;28;20481;-64
2022/06/19 11:35:46;;;;;;;3.50;1.30;;;30.50;55.00;;;;;;5051459;28;20446;-69
2022/06/19 11:38:16;;;;;;;7.27;1.83;;;30.80;54.00;;;;;;5046951;28;20461;-68
2022/06/19 11:40:49;;;;;;;4.47;2.57;;;30.60;53.50;;;;;;5048641;28;20981;-68
2022/06/19 11:43:27;;;;;;;6.40;1.60;;;30.90;54.60;;;;;;5050345;28;20462;-65
2022/06/19 11:46:01;;;;;;;3.50;1.33;;;31.20;56.20;;;;;;5051206;28;21043;-67
2022/06/19 11:48:28;;;;;;;3.77;1.27;;;31.50;54.90;;;;;;5050338;28;20470;-65
2022/06/19 11:50:56;;;;;;;4.20;1.40;;;31.60;53.10;;;;;;5051409;28;20458;-67
2022/06/19 11:53:28;;;;;;;3.53;1.20;;;31.70;53.60;;;;;;5051322;28;20536;-69
2022/06/19 11:56:14;;;;;;;3.30;1.20;;;31.80;52.80;;;;;;5046119;28;20473;-64
2022/06/19 11:58:43;;;;;;;3.97;1.80;;;31.70;51.90;;;;;;5048185;28;20914;-70
2022/06/19 12:01:12;;;;;;;3.53;1.37;;;31.30;52.30;;;;;;5049417;28;20558;-70
2022/06/19 12:03:45;;;;;;;4.20;1.60;;;31.10;52.30;;;;;;5051982;28;20454;-63
2022/06/19 12:06:14;;;;;;;5.97;1.23;;;31.10;53.40;;;;;;5051794;28;20469;-66
2022/06/19 12:08:54;;;;;;;3.30;1.13;;;31.40;51.50;;;;;;5050963;28;20581;-62
2022/06/19 12:11:37;;;;;;;4.40;1.33;;;31.60;52.10;;;;;;5046368;28;20447;-63
2022/06/19 12:14:05;;;;;;;3.40;1.20;;;31.90;50.90;;;;;;5042482;28;20493;-63
2022/06/19 12:16:33;;;;;;;4.67;1.43;;;31.90;51.20;;;;;;5040063;28;20780;-63
2022/06/19 12:19:16;;;;;;;4.50;1.30;;;31.60;51.50;;;;;;5041439;28;20538;-64
2022/06/19 12:21:55;;;;;;;3.30;1.10;;;31.80;52.90;;;;;;5041949;28;20543;-66
2022/06/19 12:24:31;;;;;;;3.87;1.10;;;32.20;51.20;;;;;;5041838;28;20439;-64
2022/06/19 12:27:02;;;;;;;3.60;1.40;;;32.60;50.70;;;;;;5049275;28;20480;-63
2022/06/19 12:29:34;;;;;;;3.60;1.37;;;32.70;50.40;;;;;;5051325;28;20456;-67
2022/06/19 12:32:06;;;;;;;3.77;1.57;;;32.60;49.50;;;;;;5051263;28;20938;-64
2022/06/19 12:34:37;;;;;;;4.00;1.30;;;32.40;50.20;;;;;;5051264;28;20489;-66
2022/06/19 12:37:12;;;;;;;3.73;1.43;;;32.60;49.30;;;;;;5051262;28;20478;-65
2022/06/19 12:39:40;;;;;;;4.20;1.37;;;32.60;48.20;;;;;;5044959;28;20505;-67
2022/06/19 12:42:16;;;;;;;3.30;1.10;;;32.30;46.20;;;;;;5047760;28;20450;-64
2022/06/19 12:45:00;;;;;;;5.50;1.90;;;32.10;46.90;;;;;;5050899;28;20450;-66
2022/06/19 12:47:45;;;;;;;3.87;1.37;;;32.10;46.70;;;;;;5051057;28;20519;-66
2022/06/19 12:50:36;;;;;;;4.90;1.67;;;31.90;47.90;;;;;;5039217;28;20439;-68
2022/06/19 12:53:17;;;;;;;7.40;1.40;;;32.00;51.80;;;;;;5042039;28;20521;-63
2022/06/19 12:55:54;;;;;;;3.70;1.57;;;32.20;51.30;;;;;;5039792;28;20936;-62
2022/06/19 12:58:49;;;;;;;3.93;1.20;;;32.00;48.80;;;;;;5030791;28;20479;-64
2022/06/19 13:01:23;;;;;;;4.47;1.43;;;31.30;50.50;;;;;;5030604;28;20451;-63
2022/06/19 13:04:09;;;;;;;3.90;1.57;;;31.00;50.60;;;;;;5030227;28;20855;-64
2022/06/19 13:06:51;;;;;;;3.80;1.30;;;30.60;52.00;;;;;;5031487;28;20470;-65
2022/06/19 13:09:37;;;;;;;4.00;1.70;;;30.70;52.50;;;;;;5039835;28;20451;-62
2022/06/19 13:12:16;;;;;;;6.20;1.43;;;30.70;52.00;;;;;;5040929;28;21054;-61